createdAt,value
2022-11-19T00:47:02.763Z,101009.06
2022-11-19T00:49:30.705Z,101009.91
2022-11-19T00:51:58.531Z,101015.19
2022-11-19T00:54:26.386Z,101009.91
2022-11-19T00:56:54.162Z,101017.88
2022-11-19T00:59:21.861Z,101011.63
2022-11-19T01:45:49.283Z,101011.88
2022-11-19T01:48:18.587Z,101013.59
2022-11-19T01:50:47.654Z,101024.41
2022-11-19T01:53:15.426Z,101024.41
2022-11-19T01:55:43.095Z,101021.81
2022-11-19T01:58:11.034Z,101032.59
2022-11-19T02:47:33.604Z,101050.72
2022-11-19T02:50:02.256Z,101055.25
2022-11-19T02:52:29.943Z,101050.72
2022-11-19T02:54:57.704Z,101043.63
2022-11-19T02:57:25.482Z,101031.97
2022-11-19T03:48:06.772Z,101068.03
2022-11-19T03:50:36.699Z,101072.53
2022-11-19T03:53:04.937Z,101068.03
2022-11-19T03:55:37.263Z,101061.75
2022-11-19T03:58:07.951Z,101075.13
2022-11-19T04:46:07.321Z,101067.41
2022-11-19T04:48:34.957Z,101067.41
2022-11-19T04:51:02.820Z,101067.41
2022-11-19T04:53:30.575Z,101060.19
2022-11-19T04:55:58.184Z,101072.81
2022-11-19T04:58:25.761Z,101060.28
2022-11-19T05:31:04.053Z,101050.59
2022-11-19T05:33:34.190Z,101065.94
2022-11-19T05:36:02.160Z,101055.16
2022-11-19T05:38:29.782Z,101050.59
2022-11-19T05:40:57.702Z,101055.16
2022-11-19T05:43:25.326Z,101050.59
2022-11-19T05:45:53.095Z,101049.75
2022-11-19T05:48:22.084Z,101055.16
2022-11-19T05:50:49.622Z,101041.78
2022-11-19T05:53:17.302Z,101052.56
2022-11-19T05:55:44.979Z,101046.31
2022-11-19T05:58:13.745Z,101049.75
2022-11-19T06:00:41.506Z,101046.31
2022-11-19T06:03:09.617Z,101057.13
2022-11-19T06:05:40.554Z,101057.13
2022-11-19T06:08:08.414Z,101051.72
2022-11-19T06:10:36.170Z,101058.81
2022-11-19T06:13:03.877Z,101053.41
2022-11-19T06:15:31.507Z,101057.00
2022-11-19T06:17:59.133Z,101066.91
2022-11-19T06:20:26.707Z,101065.06
2022-11-19T06:22:55.643Z,101073.28
2022-11-19T06:25:23.437Z,101074.13
2022-11-19T06:27:50.994Z,101077.78
2022-11-19T06:30:19.040Z,101079.41
2022-11-19T06:32:46.624Z,101081.25
2022-11-19T06:35:14.621Z,101075.88
2022-11-19T06:37:42.196Z,101078.69
2022-11-19T06:40:12.109Z,101083.84
2022-11-19T06:42:39.728Z,101081.25
2022-11-19T06:45:07.710Z,101083.19
2022-11-19T06:47:35.309Z,101078.69
2022-11-19T06:50:03.019Z,101078.69
2022-11-19T06:52:30.891Z,101078.69
2022-11-19T06:54:58.509Z,101056.22
2022-11-19T06:57:27.491Z,101060.53
2022-11-19T06:59:55.053Z,101055.16
2022-11-19T07:02:22.681Z,101058.81
2022-11-19T07:04:50.290Z,101049.75
2022-11-19T07:07:18.059Z,101051.72
2022-11-19T07:09:45.712Z,101056.22
2022-11-19T07:12:13.315Z,101050.84
2022-11-19T07:14:42.376Z,101048.25
2022-11-19T07:17:09.996Z,101062.75
2022-11-19T07:19:37.545Z,101061.00
2022-11-19T07:22:05.142Z,101061.00
2022-11-19T07:24:32.944Z,101061.00
2022-11-19T07:27:00.763Z,101072.75
2022-11-19T07:29:28.484Z,101077.19
2022-11-19T07:31:57.486Z,101074.50
2022-11-19T07:34:25.107Z,101077.31
2022-11-19T07:36:52.875Z,101068.38
2022-11-19T07:39:20.564Z,101069.34
2022-11-19T07:42:05.619Z,101069.47
2022-11-19T07:44:34.684Z,101072.03
2022-11-19T07:47:03.927Z,101073.00
2022-11-19T07:49:31.546Z,101075.69
2022-11-19T07:51:59.207Z,101058.56
2022-11-19T07:54:26.776Z,101058.44
2022-11-19T07:56:54.472Z,101058.44
2022-11-19T07:59:22.397Z,101060.16
2022-11-19T08:01:50.244Z,101066.41
2022-11-19T08:04:19.165Z,101072.66
2022-11-19T08:06:46.984Z,101068.13
2022-11-19T08:09:14.508Z,101073.53
2022-11-19T08:11:42.122Z,101070.84
2022-11-19T08:14:09.789Z,101067.25
2022-11-19T08:16:54.829Z,101047.66
2022-11-19T08:19:23.959Z,101055.63
2022-11-19T08:21:51.636Z,101056.47
2022-11-19T08:24:20.351Z,101052.94
2022-11-19T08:26:48.274Z,101045.81
2022-11-19T08:29:16.891Z,101044.00
2022-11-19T08:31:45.368Z,101047.66
2022-11-19T08:34:12.991Z,101036.03
2022-11-19T08:36:41.953Z,101036.03
2022-11-19T08:39:09.584Z,101045.81
2022-11-19T08:41:54.848Z,101043.50
2022-11-19T08:44:22.891Z,101027.84
2022-11-19T08:46:51.000Z,101036.00
2022-11-19T08:49:18.940Z,101034.03
2022-11-19T08:51:48.199Z,101034.44
2022-11-19T08:54:15.860Z,101022.19
2022-11-19T08:56:43.414Z,101033.72
2022-11-19T08:59:11.028Z,101026.25
2022-11-19T09:01:38.647Z,101019.94
2022-11-19T09:04:06.277Z,101027.94
2022-11-19T09:06:35.482Z,101027.44
2022-11-19T09:09:04.582Z,101022.13
2022-11-19T09:11:32.157Z,101022.66
2022-11-19T09:13:59.906Z,101017.16
2022-11-19T09:16:27.458Z,101023.88
2022-11-19T09:18:55.156Z,101023.50
2022-11-19T09:21:22.775Z,101018.88
2022-11-19T09:23:50.610Z,101025.94
2022-11-19T09:26:19.696Z,101029.91
2022-11-19T09:28:47.371Z,101036.38
2022-11-19T09:31:15.774Z,101037.13
2022-11-19T09:33:43.939Z,101040.91
2022-11-19T09:36:11.617Z,101034.53
2022-11-19T09:38:39.857Z,101037.84
2022-11-19T09:41:14.152Z,101042.75
2022-11-19T09:43:43.490Z,101036.75
2022-11-19T09:46:11.754Z,101042.63
2022-11-19T09:48:39.346Z,101053.75
2022-11-19T09:51:08.933Z,101058.78
2022-11-19T09:53:36.939Z,101055.00
2022-11-19T09:56:04.711Z,101053.88
2022-11-19T09:58:33.745Z,101048.22
2022-11-19T10:01:02.697Z,101045.13
2022-11-19T10:03:33.717Z,101046.72
2022-11-19T10:06:08.814Z,101047.44
2022-11-19T10:08:44.780Z,101041.06
2022-11-19T10:11:17.383Z,101042.94
2022-11-19T10:13:48.033Z,101040.34
2022-11-19T10:16:28.551Z,101030.06
2022-11-19T10:18:59.580Z,101027.03
2022-11-19T10:21:27.506Z,101015.47
2022-11-19T10:24:00.715Z,101018.56
2022-11-19T10:26:30.960Z,101011.47
2022-11-19T10:28:58.701Z,101005.44
2022-11-19T10:31:33.884Z,100998.34
2022-11-19T10:34:03.954Z,100995.78
2022-11-19T10:36:32.925Z,100990.63
2022-11-19T10:39:03.928Z,100981.81
2022-11-19T10:41:33.908Z,100975.41
2022-11-19T10:44:02.063Z,100978.34
2022-11-19T10:46:31.131Z,100982.91
2022-11-19T10:48:59.157Z,100977.75
2022-11-19T10:51:28.496Z,100989.41
2022-11-19T10:53:56.125Z,100982.66
2022-11-19T10:56:24.188Z,100988.78
2022-11-19T10:58:53.072Z,100987.53
2022-11-19T11:01:24.201Z,100986.78
2022-11-19T11:03:53.482Z,100977.09
2022-11-19T11:06:21.221Z,100973.78
2022-11-19T11:08:49.463Z,100961.41
2022-11-19T11:11:21.406Z,100975.88
2022-11-19T11:14:06.481Z,100969.75
2022-11-19T11:16:41.269Z,100963.38
2022-11-19T11:19:14.761Z,100961.66
2022-11-19T11:21:43.732Z,100961.53
2022-11-19T11:24:11.753Z,100959.94
2022-11-19T11:26:40.047Z,100956.50
2022-11-19T11:29:09.078Z,100940.31
2022-11-19T11:31:40.494Z,100928.69
2022-11-19T11:34:08.401Z,100929.53
2022-11-19T11:36:37.689Z,100943.03
2022-11-19T11:39:05.763Z,100931.25
2022-11-19T11:44:23.155Z,100924.97
2022-11-19T11:46:51.410Z,100917.88
2022-11-19T11:49:24.398Z,100914.34
2022-11-19T11:51:59.020Z,100921.44
2022-11-19T11:54:26.643Z,100901.69
2022-11-19T11:56:54.428Z,100925.72
2022-11-19T11:59:24.173Z,100916.75
2022-11-19T12:01:55.456Z,100905.53
2022-11-19T12:04:23.547Z,100904.16
2022-11-19T12:06:54.718Z,100906.72
2022-11-19T12:09:25.785Z,100897.03
2022-11-19T12:11:58.096Z,100902.41
2022-11-19T12:14:26.722Z,100906.13
2022-11-19T12:16:57.267Z,100902.84
2022-11-19T12:19:29.203Z,100909.22
2022-11-19T12:21:57.508Z,100908.38
2022-11-19T12:24:31.748Z,100909.47
2022-11-19T12:27:01.766Z,100914.03
2022-11-19T12:29:31.886Z,100914.03
2022-11-19T12:32:21.168Z,100914.03
2022-11-19T12:34:52.326Z,100905.19
2022-11-19T12:37:23.275Z,100902.63
2022-11-19T12:39:55.600Z,100911.47
2022-11-19T12:42:39.277Z,100903.50
2022-11-19T12:45:07.664Z,100901.50
2022-11-19T12:47:44.839Z,100902.34
2022-11-19T12:50:15.435Z,100905.94
2022-11-19T12:52:50.256Z,100900.41
2022-11-19T12:55:21.298Z,100906.66
2022-11-19T12:57:52.592Z,100902.97
2022-11-19T13:00:20.567Z,100902.97
2022-11-19T13:02:56.676Z,100896.56
2022-11-19T13:05:25.857Z,100901.00
2022-11-19T13:07:54.083Z,100883.94
2022-11-19T13:10:25.006Z,100896.44
2022-11-19T13:12:53.074Z,100895.59
2022-11-19T13:15:21.874Z,100887.50
2022-11-19T13:17:50.392Z,100886.78
2022-11-19T13:20:19.448Z,100892.19
2022-11-19T13:22:47.603Z,100890.44
2022-11-19T13:25:16.972Z,100884.06
2022-11-19T13:27:47.008Z,100882.22
2022-11-19T13:30:15.621Z,100883.06
2022-11-19T13:32:44.043Z,100882.22
2022-11-19T13:35:13.145Z,100884.06
2022-11-19T13:37:44.632Z,100881.38
2022-11-19T13:40:16.309Z,100877.78
2022-11-19T13:43:30.603Z,100881.38
2022-11-19T13:45:52.648Z,100881.38
2022-11-19T13:48:23.094Z,100889.47
2022-11-19T13:50:50.713Z,100885.06
2022-11-19T13:53:18.820Z,100874.25
2022-11-19T13:55:46.502Z,100873.41
2022-11-19T13:58:17.777Z,100874.25
2022-11-19T14:00:55.642Z,100863.47
2022-11-19T14:03:26.927Z,100869.69
2022-11-19T14:06:23.040Z,100868.00
2022-11-19T14:08:58.413Z,100868.84
2022-11-19T14:11:34.049Z,100872.41
2022-11-19T14:14:05.272Z,100875.22
2022-11-19T14:16:52.367Z,100872.53
2022-11-19T14:19:37.768Z,100874.25
2022-11-19T14:22:37.790Z,100874.25
2022-11-19T14:25:26.173Z,100872.53
2022-11-19T14:27:53.768Z,100872.53
2022-11-19T14:30:21.853Z,100887.03
2022-11-19T14:32:51.543Z,100877.09
2022-11-19T14:35:21.383Z,100869.97
2022-11-19T14:37:49.239Z,100865.44
2022-11-19T14:40:18.238Z,100863.72
2022-11-19T14:43:23.993Z,100866.41
2022-11-19T14:46:07.519Z,100854.66
2022-11-19T14:48:36.817Z,100852.91
2022-11-19T14:51:05.779Z,100864.69
2022-11-19T14:53:33.391Z,100858.31
2022-11-19T14:56:00.997Z,100859.28
2022-11-19T14:58:28.689Z,100862.00
2022-11-19T15:01:05.984Z,100862.00
2022-11-19T15:03:33.818Z,100858.59
2022-11-19T15:06:02.922Z,100866.53
2022-11-19T15:08:33.765Z,100865.69
2022-11-19T15:11:04.991Z,100857.72
2022-11-19T15:13:32.639Z,100859.41
2022-11-19T15:16:03.992Z,100858.59
2022-11-19T15:18:50.376Z,100853.19
2022-11-19T15:21:22.835Z,100863.97
2022-11-19T15:23:53.843Z,100867.66
2022-11-19T15:26:22.899Z,100856.84
2022-11-19T15:28:56.281Z,100845.22
2022-11-19T15:31:27.528Z,100849.78
2022-11-19T15:34:02.411Z,100849.78
2022-11-19T15:36:32.474Z,100846.19
2022-11-19T15:39:01.800Z,100848.88
2022-11-19T15:41:30.367Z,100840.06
2022-11-19T15:43:58.333Z,100842.66
2022-11-19T15:46:30.454Z,100846.31
2022-11-19T15:48:59.129Z,100831.84
2022-11-19T15:51:26.903Z,100835.53
2022-11-19T15:54:02.370Z,100837.25
2022-11-19T15:56:30.639Z,100837.25
2022-11-19T15:58:58.324Z,100831.97
2022-11-19T16:01:26.167Z,100834.56
2022-11-19T16:03:54.184Z,100836.41
2022-11-19T16:06:23.113Z,100841.81
2022-11-19T16:08:52.343Z,100833.84
2022-11-19T16:11:39.694Z,100830.38
2022-11-19T16:14:46.699Z,100831.00
2022-11-19T16:17:33.381Z,100825.41
2022-11-19T16:20:05.809Z,100836.13
2022-11-19T16:22:36.024Z,100819.84
2022-11-19T16:25:04.303Z,100815.38
2022-11-19T16:27:33.270Z,100819.34
2022-11-19T16:30:00.796Z,100822.50
2022-11-19T16:32:28.398Z,100817.69
2022-11-19T16:35:09.523Z,100813.72
2022-11-19T16:37:37.279Z,100818.00
2022-11-19T16:40:04.956Z,100822.25
2022-11-19T16:42:32.902Z,100824.81
2022-11-19T16:45:06.091Z,100816.59
2022-11-19T16:47:34.345Z,100811.19
2022-11-19T16:50:02.487Z,100808.22
2022-11-19T16:52:36.969Z,100833.97
2022-11-19T16:55:05.679Z,100814.09
2022-11-19T16:57:34.740Z,100810.38
2022-11-19T17:00:02.776Z,100822.91
2022-11-19T17:02:30.902Z,100817.50
2022-11-19T17:05:03.876Z,100818.34
2022-11-19T17:07:32.704Z,100821.91
2022-11-19T17:10:10.794Z,100810.97
2022-11-19T17:12:49.860Z,100819.53
2022-11-19T17:15:33.783Z,100813.25
2022-11-19T17:18:08.731Z,100821.84
2022-11-19T17:21:00.319Z,100816.16
2022-11-19T17:23:28.095Z,100819.56
2022-11-19T17:25:56.039Z,100823.59
2022-11-19T17:28:28.882Z,100817.91
2022-11-19T17:30:56.542Z,100833.88
2022-11-19T17:33:24.993Z,100820.47
2022-11-19T17:35:52.850Z,100840.09
2022-11-19T17:38:20.773Z,100831.44
2022-11-19T17:40:48.733Z,100840.09
2022-11-19T17:43:34.170Z,100828.75
2022-11-19T17:46:03.129Z,100829.84
2022-11-19T17:48:30.704Z,100838.78
2022-11-19T17:50:58.504Z,100826.56
2022-11-19T17:53:26.122Z,100828.31
2022-11-19T17:55:54.415Z,100834.88
2022-11-19T17:58:22.058Z,100839.19
2022-11-19T18:00:49.667Z,100837.78
2022-11-19T18:03:18.774Z,100837.50
2022-11-19T18:05:47.149Z,100830.09
2022-11-19T18:08:14.823Z,100824.69
2022-11-19T18:10:42.613Z,100828.69
2022-11-19T18:13:10.671Z,100828.13
2022-11-19T18:15:38.494Z,100871.38
2022-11-19T18:18:06.137Z,100830.09
2022-11-19T18:20:35.737Z,100818.44
2022-11-19T18:23:03.934Z,100829.28
2022-11-19T18:25:31.867Z,100828.38
2022-11-19T18:27:59.559Z,100825.56
2022-11-19T18:30:27.276Z,100826.44
2022-11-19T18:32:55.042Z,100831.69
2022-11-19T18:35:24.417Z,100821.16
2022-11-19T18:37:53.804Z,100830.09
2022-11-19T18:40:21.933Z,100829.13
2022-11-19T18:43:07.030Z,100824.97
2022-11-19T18:45:34.638Z,100825.81
2022-11-19T18:48:02.444Z,100830.38
2022-11-19T18:50:30.507Z,100826.97
2022-11-19T18:52:59.532Z,100834.34
2022-11-19T18:55:30.423Z,100830.94
2022-11-19T18:58:03.096Z,100839.19
2022-11-19T19:00:37.527Z,100829.47
2022-11-19T19:06:25.957Z,100831.59
2022-11-19T19:08:55.410Z,100828.03
2022-11-19T19:11:40.977Z,100836.13
2022-11-19T19:14:08.830Z,100838.84
2022-11-19T19:16:36.404Z,100838.84
2022-11-19T19:19:04.787Z,100825.47
2022-11-19T19:21:32.392Z,100831.00
2022-11-19T19:24:01.291Z,100836.56
2022-11-19T19:26:28.906Z,100841.09
2022-11-19T19:28:57.136Z,100839.38
2022-11-19T19:31:25.142Z,100835.09
2022-11-19T19:33:52.800Z,100827.13
2022-11-19T19:36:20.527Z,100836.25
2022-11-19T19:38:48.249Z,100840.91
2022-11-19T19:41:17.859Z,100845.34
2022-11-19T19:43:47.484Z,100852.72
2022-11-19T19:46:16.240Z,100840.06
2022-11-19T19:48:43.936Z,100848.44
2022-11-19T19:51:11.952Z,100845.88
2022-11-19T19:53:39.558Z,100843.44
2022-11-19T19:56:07.903Z,100847.84
2022-11-19T19:58:38.260Z,100837.31
2022-11-19T20:01:06.315Z,100841.00
2022-11-19T20:03:34.874Z,100846.41
2022-11-19T20:06:02.621Z,100846.41
2022-11-19T20:08:30.275Z,100846.69
2022-11-19T20:11:01.575Z,100862.88
2022-11-19T20:13:29.183Z,100851.22
2022-11-19T20:15:58.440Z,100856.63
2022-11-19T20:18:26.120Z,100853.22
2022-11-19T20:20:53.692Z,100851.50
2022-11-19T20:23:21.334Z,100861.31
2022-11-19T20:25:48.909Z,100866.00
2022-11-19T20:28:16.492Z,100868.81
2022-11-19T20:30:44.093Z,100867.13
2022-11-19T20:33:13.252Z,100872.53
2022-11-19T20:35:42.523Z,100870.81
2022-11-19T20:38:10.106Z,100880.75
2022-11-19T20:40:38.551Z,100876.22
2022-11-19T20:43:23.525Z,100874.53
2022-11-19T20:45:51.183Z,100871.66
2022-11-19T20:48:20.169Z,100877.94
2022-11-19T20:50:47.755Z,100880.50
2022-11-19T20:53:15.330Z,100881.34
2022-11-19T20:56:03.947Z,100874.22
2022-11-19T20:58:30.566Z,100879.03
2022-11-19T21:01:01.539Z,100876.47
2022-11-19T21:03:30.638Z,100870.22
2022-11-19T21:05:59.039Z,100885.59
2022-11-19T21:08:27.126Z,100873.06
2022-11-19T21:10:58.618Z,100868.50
2022-11-19T21:13:26.448Z,100863.97
2022-11-19T21:15:54.977Z,100869.66
2022-11-19T21:18:24.428Z,100867.94
2022-11-19T21:20:53.895Z,100869.66
2022-11-19T21:23:21.492Z,100860.81
2022-11-19T21:25:49.187Z,100871.59
2022-11-19T21:28:16.905Z,100869.91
2022-11-19T21:30:44.502Z,100858.22
2022-11-19T21:33:41.491Z,100869.91
2022-11-19T21:36:11.534Z,100854.38
2022-11-19T21:38:39.400Z,100840.47
2022-11-19T21:41:07.201Z,100845.59
2022-11-19T21:43:35.223Z,100844.50
2022-11-19T21:46:02.867Z,100846.78
2022-11-19T21:48:30.436Z,100853.88
2022-11-19T21:50:58.409Z,100841.09
2022-11-19T21:53:27.613Z,100847.22
2022-11-19T21:55:55.347Z,100845.97
2022-11-19T21:58:22.987Z,100859.09
2022-11-19T22:00:50.585Z,100854.81
2022-11-19T22:03:18.188Z,100849.41
2022-11-19T22:05:45.820Z,100839.44
2022-11-19T22:08:13.417Z,100832.09
2022-11-19T22:10:45.558Z,100844.03
2022-11-19T22:13:13.366Z,100846.56
2022-11-19T22:15:41.107Z,100836.28
2022-11-19T22:18:08.821Z,100831.16
2022-11-19T22:20:36.672Z,100829.56
2022-11-19T22:23:04.390Z,100833.41
2022-11-19T22:25:32.323Z,100832.81
2022-11-19T22:28:01.865Z,100825.72
2022-11-19T22:30:29.748Z,100827.66
2022-11-19T22:32:57.988Z,100830.53
2022-11-19T22:35:25.880Z,100815.44
2022-11-19T22:37:53.693Z,100826.25
2022-11-19T22:40:23.563Z,100820.84
2022-11-19T22:42:51.500Z,100816.56
2022-11-19T22:45:20.727Z,100815.72
2022-11-19T22:47:48.681Z,100819.38
2022-11-19T22:50:16.606Z,100812.31
2022-11-19T22:52:44.450Z,100806.03
2022-11-19T22:55:12.525Z,100808.84
2022-11-19T22:57:40.865Z,100808.00
2022-11-19T23:00:10.045Z,100803.44
2022-11-19T23:02:39.626Z,100797.47
2022-11-19T23:05:07.541Z,100804.72
2022-11-19T23:07:35.483Z,100808.41
2022-11-19T23:10:03.274Z,100804.88
2022-11-19T23:12:59.845Z,100803.16
2022-11-19T23:47:40.970Z,100789.91
2022-11-19T23:50:09.284Z,100797.03
2022-11-19T23:52:36.845Z,100791.50
2022-11-19T23:55:04.581Z,100789.78
2022-11-19T23:57:32.188Z,100791.78
2022-11-19T23:59:59.793Z,100791.78
